PDT,Max TemperatureF,Mean TemperatureF,Min TemperatureF,Max Dew PointF,MeanDew PointF,Min DewpointF,Max Humidity, Mean Humidity, Min Humidity, Max Sea Level PressureIn, Mean Sea Level PressureIn, Min Sea Level PressureIn, Max VisibilityMiles, Mean VisibilityMiles, Min VisibilityMiles, Max Wind SpeedMPH, Mean Wind SpeedMPH, Max Gust SpeedMPH,PrecipitationIn, CloudCover, Events, WindDirDegrees
2013-6-1,76,60,44,44,39,36,76,50,23,30.20,30.09,29.94,10,10,10,14,7,18,0.00,2,,107
2013-6-2,76,64,52,44,41,35,71,47,23,29.96,29.92,29.89,10,10,8,21,8,25,0.10,4,Rain,325
2013-6-3,79,65,51,43,40,35,64,43,21,30.03,29.98,29.94,10,10,10,14,7,22,0.00,2,,279
2013-6-4,84,66,48,48,44,41,71,48,24,30.13,30.06,30.00,10,10,10,12,5,16,0.00,0,,321
2013-6-5,91,71,50,50,45,41,77,48,19,30.02,29.96,29.88,10,10,10,17,7,25,0.00,0,,280
2013-6-6,91,78,64,47,42,35,45,30,15,29.96,29.90,29.83,10,10,10,14,5,16,0.00,0,,263
2013-6-7,89,75,60,50,43,27,52,35,17,29.94,29.88,29.84,10,10,10,32,13,38,0.00,0,,255
2013-6-8,88,72,56,43,36,30,55,36,16,30.03,29.95,29.87,10,10,10,22,9,30,0.00,0,,258
2013-6-9,83,69,55,44,33,22,66,39,11,29.95,29.89,29.81,10,10,10,17,8,22,0.00,0,,255
2013-6-10,80,66,52,44,34,31,48,33,17,29.86,29.80,29.71,10,10,10,13,7,16,0.00,0,,246
2013-6-11,74,61,47,46,39,29,86,53,19,30.00,29.85,29.74,10,10,10,26,12,33,0.00,0,,204
2013-6-12,74,60,46,41,35,27,66,42,17,30.06,30.02,29.97,10,10,10,15,6,20,0.00,0,,239
2013-6-13,75,62,49,42,38,32,71,48,24,30.07,30.04,30.02,10,10,9,21,6,28,0.02,1,,238
2013-6-14,77,63,48,43,40,35,80,52,23,30.13,30.07,30.01,10,10,10,17,6,21,0.00,1,,192
2013-6-15,85,65,45,40,37,34,66,41,16,30.01,29.96,29.89,10,10,10,12,6,15,0.00,0,,27
2013-6-16,92,75,57,52,39,33,49,32,14,30.00,29.93,29.86,10,10,10,14,7,17,0.00,0,,24
2013-6-17,86,75,63,58,49,38,63,41,19,29.96,29.90,29.81,10,10,9,18,7,26,0.12,4,Rain-Thunderstorm,211
2013-6-18,64,61,57,63,55,53,93,83,73,29.99,29.90,29.85,15,9,3,12,6,15,0.66,7,Rain,194
2013-6-19,63,59,55,52,50,47,86,73,60,29.86,29.82,29.78,10,10,10,10,5,12,0.05,7,Rain,271
2013-6-20,59,56,53,52,49,44,86,74,62,30.04,29.93,29.85,10,10,6,17,10,23,0.43,8,Rain,223
2013-6-21,69,60,51,51,49,46,89,67,45,30.11,30.08,30.04,10,10,10,9,4,13,0.00,6,,148
2013-6-22,77,65,53,52,49,43,86,59,31,30.08,30.00,29.89,10,10,10,13,5,17,0.00,4,,157
2013-6-23,78,66,53,57,50,45,84,58,31,29.88,29.75,29.62,10,10,10,12,6,16,0.08,3,Rain,301
2013-6-24,70,62,54,59,56,48,100,74,47,29.70,29.63,29.60,10,10,10,18,9,24,0.03,6,Rain,176
2013-6-25,73,63,52,56,52,50,96,73,49,29.84,29.78,29.71,10,10,8,17,7,22,0.08,3,Rain,167
2013-6-26,76,66,56,57,53,49,90,66,41,30.06,29.97,29.85,10,10,10,18,7,21,0.00,2,,168
2013-6-27,83,71,58,59,56,51,93,64,34,30.19,30.13,30.07,10,10,10,12,5,18,T,2,,7
2013-6-28,93,75,57,59,55,52,93,61,28,30.21,30.12,30.00,10,10,10,12,5,14,0.00,0,,330
2013-6-29,91,78,64,66,61,55,78,55,32,30.06,30.00,29.94,10,10,10,16,6,17,0.10,2,Rain-Thunderstorm,360
2013-6-30,97,80,62,64,58,49,93,57,20,30.02,29.97,29.89,10,10,10,12,4,,0.00,0,,47